createdAt,value
2023-04-25T00:00:12.591Z,2.83
2023-04-25T00:05:16.395Z,2.50
2023-04-25T00:10:21.248Z,2.90
2023-04-25T00:15:23.897Z,2.57
2023-04-25T00:20:26.476Z,1.67
2023-04-25T00:25:28.936Z,1.48
2023-04-25T00:30:31.433Z,2.33
2023-04-25T00:35:34.841Z,2.78
2023-04-25T00:40:37.280Z,1.57
2023-04-25T00:45:40.837Z,1.53
2023-04-25T00:50:52.539Z,2.47
2023-04-25T00:55:55.812Z,2.13
2023-04-25T01:00:59.034Z,1.50
2023-04-25T01:06:02.434Z,2.00
2023-04-25T01:11:05.586Z,2.03
2023-04-25T01:16:08.651Z,2.00
2023-04-25T01:21:12.715Z,1.53
2023-04-25T01:26:15.527Z,2.17
2023-04-25T01:31:20.206Z,2.30
2023-04-25T01:36:23.552Z,1.27
2023-04-25T01:41:26.794Z,1.80
2023-04-25T01:46:29.927Z,2.07
2023-04-25T01:51:32.777Z,1.77
2023-04-25T01:56:38.881Z,1.60
2023-04-25T02:01:43.490Z,2.00
2023-04-25T02:06:59.020Z,1.92
2023-04-25T02:12:11.258Z,1.75
2023-04-25T02:17:32.793Z,2.00
2023-04-25T02:22:36.424Z,2.20
2023-04-25T02:27:41.723Z,1.80
2023-04-25T02:32:44.622Z,2.03
2023-04-25T02:37:47.117Z,1.90
2023-04-25T02:42:49.841Z,1.90
2023-04-25T02:47:52.447Z,1.80
2023-04-25T02:52:55.769Z,1.50
2023-04-25T02:58:03.902Z,1.90
2023-04-25T03:03:22.857Z,1.73
2023-04-25T03:08:27.944Z,1.92
2023-04-25T03:13:31.074Z,2.05
2023-04-25T03:18:34.847Z,1.50
2023-04-25T03:23:37.342Z,2.25
2023-04-25T03:28:41.156Z,1.63
2023-04-25T03:33:43.891Z,1.95
2023-04-25T03:38:46.790Z,2.03
2023-04-25T03:43:51.948Z,1.85
2023-04-25T03:48:54.908Z,1.73
2023-04-25T03:54:02.473Z,2.38
2023-04-25T03:59:27.791Z,2.10
2023-04-25T04:04:31.327Z,2.10
2023-04-25T04:09:34.546Z,2.20
2023-04-25T04:14:41.065Z,2.07
2023-04-25T04:19:43.648Z,2.35
2023-04-25T04:24:55.398Z,2.00
2023-04-25T04:30:15.866Z,3.17
2023-04-25T04:35:32.772Z,1.63
2023-04-25T04:40:35.864Z,1.73
2023-04-25T04:46:07.299Z,1.83
2023-04-25T04:51:19.742Z,2.83
2023-04-25T04:56:33.380Z,3.15
2023-04-25T05:01:51.099Z,2.40
2023-04-25T05:07:02.733Z,1.60
2023-04-25T05:12:08.221Z,2.63
2023-04-25T05:17:25.574Z,3.08
2023-04-25T05:22:46.936Z,1.45
2023-04-25T05:27:55.527Z,2.10
2023-04-25T05:33:18.044Z,2.10
2023-04-25T05:38:21.551Z,2.63
2023-04-25T05:43:48.313Z,2.00
2023-04-25T05:49:04.538Z,1.73
2023-04-25T05:54:19.171Z,2.20
2023-04-25T05:59:21.968Z,1.03
2023-04-25T06:04:25.596Z,2.17
2023-04-25T06:09:28.212Z,1.13
2023-04-25T06:14:31.583Z,2.27
2023-04-25T06:19:35.495Z,3.20
2023-04-25T06:24:38.268Z,2.33
2023-04-25T06:29:41.060Z,2.70
2023-04-25T06:34:44.445Z,2.20
2023-04-25T06:39:47.809Z,1.07
2023-04-25T06:44:51.362Z,2.27
2023-04-25T06:49:55.604Z,2.13
2023-04-25T06:54:59.016Z,1.77
2023-04-25T07:00:16.608Z,2.47
2023-04-25T07:05:19.903Z,1.80
2023-04-25T07:10:23.096Z,2.37
2023-04-25T07:15:26.246Z,2.27
2023-04-25T07:20:33.856Z,2.37
2023-04-25T07:25:37.822Z,2.10
2023-04-25T07:30:40.761Z,1.97
2023-04-25T07:35:43.420Z,2.67
2023-04-25T07:40:46.928Z,0.83
2023-04-25T07:45:49.567Z,1.67
2023-04-25T07:50:54.971Z,2.00
2023-04-25T07:55:57.860Z,2.70
2023-04-25T08:01:00.531Z,1.90
2023-04-25T08:06:05.685Z,2.33
2023-04-25T08:11:16.975Z,1.93
2023-04-25T08:16:19.647Z,1.67
2023-04-25T08:21:22.813Z,1.77
2023-04-25T08:26:26.483Z,3.00
2023-04-25T08:31:29.558Z,2.33
2023-04-25T08:36:39.847Z,2.50
2023-04-25T08:42:07.246Z,2.80
2023-04-25T08:47:10.196Z,2.00
2023-04-25T08:52:24.213Z,3.07
2023-04-25T08:57:29.567Z,2.95
2023-04-25T09:02:33.518Z,2.20
2023-04-25T09:07:38.537Z,2.13
2023-04-25T09:12:42.216Z,2.43
2023-04-25T09:17:45.753Z,2.03
2023-04-25T09:22:48.584Z,1.63
2023-04-25T09:27:53.482Z,2.40
2023-04-25T09:33:09.925Z,2.03
2023-04-25T09:38:16.160Z,2.17
2023-04-25T09:43:28.852Z,3.67
2023-04-25T09:48:32.365Z,1.15
2023-04-25T09:53:47.324Z,2.00
2023-04-25T09:59:16.815Z,2.23
2023-04-25T10:04:33.852Z,1.27
2023-04-25T10:09:43.634Z,2.40
2023-04-25T10:14:47.762Z,1.83
2023-04-25T10:19:50.569Z,1.45
2023-04-25T10:24:53.726Z,1.37
2023-04-25T10:30:05.544Z,1.92
2023-04-25T10:35:18.137Z,1.87
2023-04-25T10:40:24.136Z,3.28
2023-04-25T10:45:27.119Z,2.43
2023-04-25T10:50:40.317Z,1.50
2023-04-25T10:55:52.808Z,1.77
2023-04-25T11:00:57.575Z,2.27
2023-04-25T11:06:02.840Z,1.70
2023-04-25T11:11:05.432Z,2.40
2023-04-25T11:16:13.168Z,2.57
2023-04-25T11:21:16.912Z,1.48
2023-04-25T11:26:21.611Z,1.97
2023-04-25T11:31:26.193Z,1.73
2023-04-25T11:36:28.849Z,2.00
2023-04-25T11:41:31.905Z,2.33
2023-04-25T11:46:37.396Z,2.90
2023-04-25T11:51:41.589Z,1.50
2023-04-25T11:56:45.876Z,1.97
2023-04-25T12:01:51.781Z,1.52
2023-04-25T12:06:56.432Z,1.10
2023-04-25T12:12:03.837Z,2.00
2023-04-25T12:17:09.368Z,1.83
2023-04-25T12:22:25.830Z,1.80
2023-04-25T12:27:28.488Z,2.00
2023-04-25T12:32:31.130Z,2.40
2023-04-25T12:37:33.631Z,2.10
2023-04-25T12:42:36.177Z,1.33
2023-04-25T12:47:38.734Z,1.87
2023-04-25T12:52:41.184Z,1.50
2023-04-25T12:57:43.718Z,1.87
2023-04-25T13:02:47.402Z,2.03
2023-04-25T13:07:50.453Z,1.83
2023-04-25T13:12:52.902Z,1.73
2023-04-25T13:17:55.467Z,1.63
2023-04-25T13:22:59.651Z,1.70
2023-04-25T13:28:03.173Z,1.80
2023-04-25T13:33:07.689Z,1.53
2023-04-25T13:38:10.565Z,1.80
2023-04-25T13:43:13.269Z,1.60
2023-04-25T13:48:15.889Z,1.58
2023-04-25T13:53:18.335Z,1.33
2023-04-25T13:58:21.582Z,1.77
2023-04-25T14:03:24.373Z,1.40
2023-04-25T14:08:26.921Z,1.67
2023-04-25T14:13:29.518Z,1.50
2023-04-25T14:18:32.483Z,2.70
2023-04-25T14:23:35.106Z,1.90
2023-04-25T14:28:37.540Z,2.13
2023-04-25T14:33:43.148Z,1.90
2023-04-25T14:38:45.551Z,1.57
2023-04-25T14:43:48.215Z,3.33
2023-04-25T14:48:52.514Z,1.47
2023-04-25T14:53:55.234Z,2.33
2023-04-25T14:58:57.680Z,2.13
2023-04-25T15:04:00.435Z,1.70
2023-04-25T15:09:03.264Z,4.80
2023-04-25T15:14:05.955Z,1.80
2023-04-25T15:19:09.169Z,1.67
2023-04-25T15:24:12.229Z,1.50
2023-04-25T15:29:14.836Z,1.60
2023-04-25T15:34:17.209Z,3.70
2023-04-25T15:39:20.251Z,4.47
2023-04-25T15:44:22.739Z,2.87
2023-04-25T15:49:25.530Z,3.40
2023-04-25T15:54:28.039Z,3.20
2023-04-25T15:59:30.603Z,2.53
2023-04-25T16:04:35.720Z,3.13
2023-04-25T16:09:39.101Z,3.03
2023-04-25T16:14:41.737Z,3.30
2023-04-25T16:19:44.301Z,3.47
2023-04-25T16:24:46.841Z,2.87
2023-04-25T16:29:51.417Z,2.72
2023-04-25T16:34:54.065Z,3.08
2023-04-25T16:39:56.651Z,3.72
2023-04-25T16:44:59.205Z,3.22
2023-04-25T16:50:01.779Z,3.45
2023-04-25T16:55:04.597Z,3.80
2023-04-25T17:00:09.913Z,2.90
2023-04-25T17:05:12.766Z,3.33
2023-04-25T17:10:15.170Z,3.47
2023-04-25T17:15:17.807Z,2.80
2023-04-25T17:20:20.495Z,3.53
2023-04-25T17:25:22.905Z,3.10
2023-04-25T17:30:25.478Z,3.58
2023-04-25T17:35:29.198Z,3.88
2023-04-25T17:40:32.013Z,3.33
2023-04-25T17:45:35.813Z,3.25
2023-04-25T17:50:38.357Z,2.70
2023-04-25T17:55:43.693Z,4.22
2023-04-25T18:00:46.489Z,3.30
2023-04-25T18:05:48.976Z,3.30
2023-04-25T18:10:52.563Z,5.20
2023-04-25T18:15:56.842Z,4.20
2023-04-25T18:21:03.863Z,4.57
2023-04-25T18:26:06.588Z,4.70
2023-04-25T18:31:09.554Z,5.33
2023-04-25T18:36:12.498Z,4.93
2023-04-25T18:46:23.923Z,5.47
2023-04-25T18:51:31.478Z,5.00
2023-04-25T18:56:33.986Z,5.33
2023-04-25T19:01:36.621Z,5.43
2023-04-25T19:06:39.126Z,6.20
2023-04-25T19:11:41.647Z,6.33
2023-04-25T19:16:44.318Z,5.32
2023-04-25T19:21:46.966Z,5.33
2023-04-25T19:26:49.596Z,5.20
2023-04-25T19:31:52.136Z,5.23
2023-04-25T19:36:55.699Z,5.50
2023-04-25T19:41:58.296Z,5.13
2023-04-25T19:47:01.973Z,4.13
2023-04-25T19:52:07.051Z,3.80
2023-04-25T19:57:09.580Z,4.33
2023-04-25T20:02:12.082Z,3.65
2023-04-25T20:07:15.604Z,3.70
2023-04-25T20:12:18.185Z,3.55
2023-04-25T20:17:21.111Z,3.45
2023-04-25T20:22:23.931Z,4.38
2023-04-25T20:27:26.908Z,3.78
2023-04-25T20:32:34.409Z,4.00
2023-04-25T20:37:37.664Z,4.03
2023-04-25T20:42:40.425Z,4.10
2023-04-25T20:47:44.605Z,3.53
2023-04-25T20:52:47.242Z,3.55
2023-04-25T20:57:50.995Z,3.03
2023-04-25T21:02:53.822Z,3.08
2023-04-25T21:07:57.556Z,3.42
2023-04-25T21:13:00.161Z,3.92
2023-04-25T21:18:02.932Z,2.90
2023-04-25T21:23:05.501Z,3.42
2023-04-25T21:28:08.776Z,3.20
2023-04-25T21:33:11.713Z,3.67
2023-04-25T21:38:15.668Z,3.07
2023-04-25T21:43:18.211Z,2.87
2023-04-25T21:48:21.076Z,3.95
2023-04-25T21:53:24.969Z,2.72
2023-04-25T21:58:27.324Z,2.80
2023-04-25T22:03:32.722Z,2.90
2023-04-25T22:08:35.281Z,2.73
2023-04-25T22:13:38.675Z,2.58
2023-04-25T22:18:41.175Z,3.35
2023-04-25T22:23:43.888Z,3.83
2023-04-25T22:28:46.873Z,3.93
2023-04-25T22:33:49.431Z,5.53
2023-04-25T22:38:53.043Z,5.43
2023-04-25T22:43:55.880Z,5.20
2023-04-25T22:48:58.392Z,3.83
2023-04-25T22:54:01.559Z,4.33
2023-04-25T22:59:04.676Z,4.57
2023-04-25T23:04:08.590Z,3.90
2023-04-25T23:09:14.959Z,4.73
2023-04-25T23:14:17.393Z,4.67
2023-04-25T23:19:20.254Z,4.15
2023-04-25T23:24:22.772Z,4.88
2023-04-25T23:29:25.252Z,3.60
2023-04-25T23:34:31.735Z,3.55
2023-04-25T23:39:34.509Z,3.10
2023-04-25T23:44:37.031Z,3.95
2023-04-25T23:49:40.302Z,3.58
2023-04-25T23:54:42.788Z,2.70
2023-04-25T23:59:45.397Z,3.20
